Time;durP1;ratioP1;P1;durP2;ratioP2;P2;SDS_P1;SDS_P2;PMS_P1;PMS_P2;Temp;Humidity;BMP_temperature;BMP_pressure;BME280_temperature;BME280_humidity;BME280_pressure;Samples;Min_cycle;Max_cycle;Signal;HPM_P1;HPM_P2
2024/03/22 00:00:32;;;;;;;;;;;;;;;21.40;33.41;101304.52;102767;1294;62259;-80
2024/03/22 00:02:58;;;;;;;;;;;;;;;21.39;33.44;101300.23;102884;1294;62156;-79
2024/03/22 00:05:24;;;;;;;;;;;;;;;21.40;33.50;101302.33;102769;1294;62207;-80
2024/03/22 00:07:49;;;;;;;;;;;;;;;21.40;33.41;101302.17;102742;1294;62198;-79
2024/03/22 00:10:15;;;;;;;;;;;;;;;21.40;33.34;101296.24;102717;1296;62175;-80
2024/03/22 00:12:41;;;;;;;;;;;;;;;21.40;33.42;101285.67;102807;1291;62197;-81
2024/03/22 00:15:06;;;;;;;;;;;;;;;21.41;33.39;101289.95;102727;1297;63417;-81
2024/03/22 00:17:33;;;;;;;;;;;;;;;21.41;33.31;101284.56;102634;1294;63373;-81
2024/03/22 00:19:58;;;;;;;;;;;;;;;21.41;33.37;101286.90;102476;1300;72504;-80
2024/03/22 00:22:24;;;;;;;;;;;;;;;21.41;33.40;101289.94;102772;1295;62237;-81
2024/03/22 00:24:50;;;;;;;;;;;;;;;21.41;33.23;101288.33;102467;1297;63461;-80
2024/03/22 00:27:15;;;;;;;;;;;;;;;21.41;33.41;101287.23;102469;1294;62262;-82
2024/03/22 00:29:42;;;;;;;;;;;;;;;21.41;33.36;101287.94;102594;1300;62278;-81
2024/03/22 00:32:07;;;;;;;;;;;;;;;21.42;33.42;101287.92;102720;1294;62156;-80
2024/03/22 00:34:34;;;;;;;;;;;;;;;21.42;33.27;101287.91;102414;1294;76123;-80
2024/03/22 00:36:59;;;;;;;;;;;;;;;21.42;33.31;101286.86;102383;1294;62271;-79
2024/03/22 00:39:25;;;;;;;;;;;;;;;21.42;33.39;101286.98;102590;1294;62308;-80
2024/03/22 00:41:50;;;;;;;;;;;;;;;21.42;33.20;101284.09;102577;1300;63543;-79
2024/03/22 00:44:16;;;;;;;;;;;;;;;21.43;33.28;101288.02;102433;1294;62234;-80
2024/03/22 00:46:42;;;;;;;;;;;;;;;21.43;33.38;101287.45;102444;1294;62735;-81
2024/03/22 00:49:07;;;;;;;;;;;;;;;21.43;33.32;101288.02;102734;1292;62179;-79
2024/03/22 00:51:33;;;;;;;;;;;;;;;21.43;33.27;101290.31;102835;1292;62245;-79
2024/03/22 00:53:58;;;;;;;;;;;;;;;21.44;33.42;101290.47;102747;1294;63519;-80
2024/03/22 00:56:24;;;;;;;;;;;;;;;21.44;33.31;101287.41;102700;1291;63373;-81
2024/03/22 00:58:49;;;;;;;;;;;;;;;21.45;33.22;101285.80;102599;1292;62130;-81
2024/03/22 01:01:15;;;;;;;;;;;;;;;21.44;33.31;101282.93;102736;1294;62274;-80
2024/03/22 01:03:40;;;;;;;;;;;;;;;21.44;33.41;101288.48;102851;1294;62512;-78
2024/03/22 01:06:07;;;;;;;;;;;;;;;21.45;33.35;101291.14;102700;1292;63375;-80
2024/03/22 01:08:33;;;;;;;;;;;;;;;21.45;33.28;101292.95;102750;1292;62130;-80
2024/03/22 01:10:58;;;;;;;;;;;;;;;21.45;33.34;101293.48;102631;1294;62256;-81
2024/03/22 01:13:24;;;;;;;;;;;;;;;21.45;33.31;101295.62;102797;1292;62655;-79
2024/03/22 01:15:49;;;;;;;;;;;;;;;21.45;33.26;101296.33;102825;1291;62083;-80
2024/03/22 01:18:15;;;;;;;;;;;;;;;21.45;33.34;101296.49;102667;1295;62223;-79
2024/03/22 01:20:42;;;;;;;;;;;;;;;21.45;33.30;101292.20;102790;1292;62117;-80
2024/03/22 01:23:07;;;;;;;;;;;;;;;21.46;33.34;101293.41;102877;1292;62173;-79
2024/03/22 01:25:33;;;;;;;;;;;;;;;21.46;33.31;101290.35;102801;1291;63495;-80
2024/03/22 01:27:58;;;;;;;;;;;;;;;21.46;33.44;101293.38;102782;1291;63469;-79
2024/03/22 01:30:28;;;;;;;;;;;;;;;21.46;33.39;101291.06;102762;1295;62205;-80
2024/03/22 01:32:54;;;;;;;;;;;;;;;21.47;33.38;101290.84;102787;1296;76311;-80
2024/03/22 01:35:20;;;;;;;;;;;;;;;21.47;33.33;101284.40;102713;1297;62268;-80
2024/03/22 01:37:45;;;;;;;;;;;;;;;21.46;33.30;101282.77;102591;1295;63320;-80
2024/03/22 01:40:11;;;;;;;;;;;;;;;21.47;33.30;101284.40;102875;1297;62217;-80
2024/03/22 01:42:37;;;;;;;;;;;;;;;21.46;33.48;101279.23;102833;1297;62198;-82
2024/03/22 01:45:03;;;;;;;;;;;;;;;21.46;33.37;101274.39;102790;1293;62235;-81
2024/03/22 01:47:29;;;;;;;;;;;;;;;21.47;33.20;101277.56;102770;1292;63172;-78
2024/03/22 01:49:55;;;;;;;;;;;;;;;21.48;33.30;101277.70;102741;1297;62194;-79
2024/03/22 01:52:20;;;;;;;;;;;;;;;21.48;33.39;101278.41;102760;1295;62118;-80
2024/03/22 01:54:46;;;;;;;;;;;;;;;21.48;33.32;101279.14;102697;1295;63584;-80
2024/03/22 01:57:11;;;;;;;;;;;;;;;21.48;33.37;101283.94;102656;1295;62172;-81
2024/03/22 01:59:37;;;;;;;;;;;;;;;21.48;33.40;101282.00;102747;1291;62283;-82
2024/03/22 02:02:03;;;;;;;;;;;;;;;21.48;33.30;101282.49;102911;1291;62576;-81
2024/03/22 02:04:28;;;;;;;;;;;;;;;21.49;33.32;101285.52;102797;1294;62233;-81
2024/03/22 02:06:54;;;;;;;;;;;;;;;21.48;33.26;101288.94;102362;1300;62148;-79
2024/03/22 02:09:20;;;;;;;;;;;;;;;21.48;33.37;101289.48;102793;1294;62214;-80
2024/03/22 02:11:46;;;;;;;;;;;;;;;21.48;33.29;101288.05;102777;1292;63466;-81
2024/03/22 02:14:12;;;;;;;;;;;;;;;21.49;33.34;101295.54;102761;1295;62210;-80
2024/03/22 02:16:39;;;;;;;;;;;;;;;21.48;33.30;101294.31;102704;1295;72521;-81
2024/03/22 02:19:05;;;;;;;;;;;;;;;21.49;33.32;101295.17;102656;1292;75185;-80
2024/03/22 02:21:30;;;;;;;;;;;;;;;21.49;33.31;101297.14;102351;1294;687148;-80
2024/03/22 02:23:56;;;;;;;;;;;;;;;21.49;33.30;101295.50;102791;1294;62157;-81
2024/03/22 02:26:22;;;;;;;;;;;;;;;21.49;33.30;101295.66;102749;1297;63351;-79
2024/03/22 02:28:47;;;;;;;;;;;;;;;21.50;33.26;101291.71;102713;1295;63515;-80
2024/03/22 02:31:13;;;;;;;;;;;;;;;21.50;33.38;101291.16;102761;1293;76236;-80
2024/03/22 02:33:38;;;;;;;;;;;;;;;21.50;33.32;101290.95;102821;1294;62274;-79
2024/03/22 02:36:05;;;;;;;;;;;;;;;21.51;33.38;101290.56;102749;1295;62247;-79
2024/03/22 02:38:30;;;;;;;;;;;;;;;21.51;33.32;101291.83;102730;1292;63391;-81
2024/03/22 02:40:57;;;;;;;;;;;;;;;21.51;33.35;101298.80;102810;1295;62202;-80
2024/03/22 02:43:23;;;;;;;;;;;;;;;21.51;33.25;101297.71;102886;1297;62115;-80
2024/03/22 02:45:49;;;;;;;;;;;;;;;21.51;33.29;101304.34;102733;1294;62195;-80
2024/03/22 02:48:14;;;;;;;;;;;;;;;21.51;33.15;101302.17;102836;1296;62206;-80
2024/03/22 02:50:40;;;;;;;;;;;;;;;21.52;33.27;101304.13;102625;1294;62183;-79
2024/03/22 02:53:06;;;;;;;;;;;;;;;21.52;33.37;101303.77;102733;1297;63471;-80
2024/03/22 02:55:38;;;;;;;;;;;;;;;21.52;33.14;101305.52;102710;1295;62362;-79
2024/03/22 02:58:04;;;;;;;;;;;;;;;21.52;33.24;101299.95;102383;1298;62231;-80
2024/03/22 03:00:29;;;;;;;;;;;;;;;21.52;33.40;101298.54;102767;1295;62165;-79
2024/03/22 03:02:55;;;;;;;;;;;;;;;21.52;33.24;101292.25;102831;1297;62640;-80
2024/03/22 03:05:22;;;;;;;;;;;;;;;21.53;33.25;101289.58;102788;1295;62229;-81
2024/03/22 03:07:48;;;;;;;;;;;;;;;21.53;33.41;101296.17;102795;1297;62172;-81
2024/03/22 03:10:13;;;;;;;;;;;;;;;21.53;33.20;101298.85;102818;1295;63413;-80
2024/03/22 03:12:39;;;;;;;;;;;;;;;21.53;33.31;101304.05;102784;1297;63361;-79
2024/03/22 03:15:04;;;;;;;;;;;;;;;21.53;33.12;101307.42;102704;1295;76196;-81
2024/03/22 03:17:30;;;;;;;;;;;;;;;21.53;33.25;101307.27;102670;1297;62200;-80
2024/03/22 03:19:56;;;;;;;;;;;;;;;21.53;33.30;101302.61;102701;1294;62208;-79
2024/03/22 03:22:22;;;;;;;;;;;;;;;21.53;33.25;101297.77;102925;1295;62792;-80
2024/03/22 03:24:47;;;;;;;;;;;;;;;21.54;33.19;101292.71;102715;1294;62198;-82
2024/03/22 03:27:13;;;;;;;;;;;;;;;21.55;33.23;101293.02;102808;1297;62202;-80
2024/03/22 03:29:38;;;;;;;;;;;;;;;21.54;33.27;101296.09;102773;1294;62361;-80
2024/03/22 03:32:04;;;;;;;;;;;;;;;21.54;33.28;101298.23;102738;1294;62216;-81
2024/03/22 03:34:29;;;;;;;;;;;;;;;21.55;33.14;101300.88;102697;1295;62223;-80
2024/03/22 03:36:55;;;;;;;;;;;;;;;21.55;33.21;101299.27;102734;1297;63378;-80
2024/03/22 03:39:21;;;;;;;;;;;;;;;21.55;33.19;101295.34;102737;1293;62538;-79
2024/03/22 03:41:46;;;;;;;;;;;;;;;21.56;33.35;101296.55;102810;1294;62207;-80
2024/03/22 03:44:12;;;;;;;;;;;;;;;21.56;33.19;101299.04;102790;1295;63585;-80
2024/03/22 03:46:37;;;;;;;;;;;;;;;21.56;33.35;101301.36;102684;1292;62712;-80
2024/03/22 03:49:03;;;;;;;;;;;;;;;21.57;33.33;101308.48;102660;1297;62214;-80
2024/03/22 03:51:28;;;;;;;;;;;;;;;21.57;33.34;101312.95;102767;1294;63278;-80
2024/03/22 03:53:54;;;;;;;;;;;;;;;21.56;33.14;101315.48;102773;1291;62200;-80
2024/03/22 03:56:19;;;;;;;;;;;;;;;21.57;33.24;101321.38;102714;1291;62217;-79
2024/03/22 03:58:46;;;;;;;;;;;;;;;21.57;33.23;101320.28;102704;1295;63366;-81
2024/03/22 04:01:11;;;;;;;;;;;;;;;21.57;33.25;101322.08;102762;1294;62134;-79
2024/03/22 04:03:37;;;;;;;;;;;;;;;21.57;33.20;101322.98;102792;1295;62182;-79
2024/03/22 04:06:02;;;;;;;;;;;;;;;21.57;33.22;101330.13;102754;1294;62430;-80
2024/03/22 04:08:28;;;;;;;;;;;;;;;21.57;33.36;101330.48;102767;1294;63393;-81
2024/03/22 04:10:56;;;;;;;;;;;;;;;21.58;33.37;101327.76;102835;1297;65247;-79
2024/03/22 04:13:22;;;;;;;;;;;;;;;21.57;33.21;101327.23;102747;1294;75209;-81
2024/03/22 04:15:48;;;;;;;;;;;;;;;21.58;33.33;101325.61;102667;1297;62796;-80
2024/03/22 04:18:13;;;;;;;;;;;;;;;21.58;33.32;101324.16;102739;1295;62326;-81
2024/03/22 04:20:39;;;;;;;;;;;;;;;21.59;33.36;101324.83;102774;1296;62209;-80
2024/03/22 04:23:04;;;;;;;;;;;;;;;21.58;33.12;101326.26;102812;1292;63427;-79
2024/03/22 04:25:30;;;;;;;;;;;;;;;21.58;33.34;101331.83;102767;1297;62215;-80
2024/03/22 04:27:56;;;;;;;;;;;;;;;21.59;33.27;101336.45;102743;1292;62198;-82
2024/03/22 04:30:21;;;;;;;;;;;;;;;21.59;33.24;101339.48;102703;1292;62207;-80
2024/03/22 04:32:47;;;;;;;;;;;;;;;21.59;33.38;101339.27;102813;1294;62141;-80
2024/03/22 04:35:13;;;;;;;;;;;;;;;21.60;33.30;101337.83;102671;1297;62211;-81
2024/03/22 04:37:38;;;;;;;;;;;;;;;21.60;33.31;101340.15;102715;1297;63350;-80
2024/03/22 04:40:04;;;;;;;;;;;;;;;21.60;33.21;101343.19;102767;1294;63436;-81
2024/03/22 04:42:30;;;;;;;;;;;;;;;21.60;33.28;101349.61;102800;1291;62154;-80
2024/03/22 04:44:55;;;;;;;;;;;;;;;21.60;33.24;101351.77;102766;1292;62206;-80
2024/03/22 04:47:21;;;;;;;;;;;;;;;21.60;33.29;101351.58;102717;1291;62461;-80
2024/03/22 04:49:47;;;;;;;;;;;;;;;21.60;33.21;101353.02;102732;1297;62202;-81
2024/03/22 04:52:12;;;;;;;;;;;;;;;21.61;33.24;101355.66;102812;1297;62147;-80
2024/03/22 04:54:38;;;;;;;;;;;;;;;21.61;33.17;101357.27;102807;1297;63274;-80
2024/03/22 04:57:03;;;;;;;;;;;;;;;21.61;33.13;101358.36;102662;1291;63481;-79
2024/03/22 04:59:29;;;;;;;;;;;;;;;21.60;33.30;101360.15;102708;1295;63415;-79
2024/03/22 05:01:54;;;;;;;;;;;;;;;21.61;33.25;101361.95;102881;1291;62208;-80
2024/03/22 05:04:20;;;;;;;;;;;;;;;21.61;33.11;101358.88;102830;1293;62198;-80
2024/03/22 05:06:45;;;;;;;;;;;;;;;21.61;33.20;101353.90;102396;1297;62313;-79
2024/03/22 05:09:11;;;;;;;;;;;;;;;21.60;33.16;101355.20;102662;1297;63427;-79
2024/03/22 05:11:37;;;;;;;;;;;;;;;21.59;33.31;101355.23;102761;1291;62188;-80
2024/03/22 05:14:02;;;;;;;;;;;;;;;21.58;33.32;101360.52;102801;1295;63357;-80
2024/03/22 05:16:28;;;;;;;;;;;;;;;21.58;33.27;101361.98;102753;1295;62204;-81
2024/03/22 05:18:53;;;;;;;;;;;;;;;21.58;33.29;101366.60;102723;1291;62220;-80
2024/03/22 05:21:19;;;;;;;;;;;;;;;21.58;33.28;101364.29;102794;1294;62194;-78
2024/03/22 05:23:44;;;;;;;;;;;;;;;21.57;33.27;101364.88;102781;1297;62179;-81
2024/03/22 05:26:10;;;;;;;;;;;;;;;21.57;33.29;101370.10;102732;1295;62193;-79
2024/03/22 05:28:36;;;;;;;;;;;;;;;21.54;33.23;101373.48;102837;1297;63379;-79
2024/03/22 05:31:01;;;;;;;;;;;;;;;21.51;33.39;101373.14;102804;1292;62106;-80
2024/03/22 05:33:27;;;;;;;;;;;;;;;21.47;33.25;101373.55;102751;1297;62212;-82
2024/03/22 05:35:52;;;;;;;;;;;;;;;21.42;33.23;101381.16;102660;1294;62206;-81
2024/03/22 05:38:19;;;;;;;;;;;;;;;21.38;33.28;101385.95;102992;1293;63519;-80
2024/03/22 05:40:47;;;;;;;;;;;;;;;21.32;33.11;101383.45;103024;1293;62114;-80
2024/03/22 05:43:13;;;;;;;;;;;;;;;21.26;33.00;101388.27;103129;1297;62172;-81
2024/03/22 05:45:38;;;;;;;;;;;;;;;21.24;33.30;101386.99;103295;1294;62114;-79
2024/03/22 05:48:04;;;;;;;;;;;;;;;21.21;33.24;101386.09;102983;1295;62209;-79
2024/03/22 05:50:30;;;;;;;;;;;;;;;21.20;33.13;101387.05;102944;1296;62139;-80
2024/03/22 05:52:56;;;;;;;;;;;;;;;21.18;33.15;101389.88;103240;1300;62391;-80
2024/03/22 05:55:21;;;;;;;;;;;;;;;21.15;33.07;101391.83;103803;1294;63377;-80
2024/03/22 05:57:47;;;;;;;;;;;;;;;21.12;33.11;101396.67;103702;1297;62307;-83
2024/03/22 06:00:13;;;;;;;;;;;;;;;21.09;33.03;101401.14;103991;1298;62125;-80
2024/03/22 06:02:39;;;;;;;;;;;;;;;21.07;33.07;101397.19;103968;1300;60522;-81
2024/03/22 06:05:05;;;;;;;;;;;;;;;21.05;33.03;101401.20;104190;1294;62401;-80
2024/03/22 06:07:38;;;;;;;;;;;;;;;21.05;33.01;101403.39;104009;1300;62177;-80
2024/03/22 06:10:04;;;;;;;;;;;;;;;21.04;33.09;101402.31;104799;1294;63385;-81
2024/03/22 06:12:30;;;;;;;;;;;;;;;21.05;33.13;101403.89;104286;1294;62143;-81
2024/03/22 06:14:56;;;;;;;;;;;;;;;21.07;32.99;101405.74;104183;1294;60586;-81
2024/03/22 06:17:22;;;;;;;;;;;;;;;21.09;32.87;101402.39;104091;1298;61332;-80
2024/03/22 06:19:47;;;;;;;;;;;;;;;21.14;33.01;101403.58;103695;1299;62135;-79
2024/03/22 06:22:13;;;;;;;;;;;;;;;21.16;32.83;101405.92;104317;1293;59807;-80
2024/03/22 06:24:38;;;;;;;;;;;;;;;21.19;33.01;101401.06;103948;1292;62176;-80
2024/03/22 06:27:04;;;;;;;;;;;;;;;21.22;33.01;101403.58;104186;1295;62089;-79
2024/03/22 06:29:30;;;;;;;;;;;;;;;21.26;32.95;101406.91;104040;1293;62194;-79
2024/03/22 06:31:55;;;;;;;;;;;;;;;21.29;33.06;101408.73;104201;1294;60450;-80
2024/03/22 06:34:21;;;;;;;;;;;;;;;21.29;32.99;101404.91;104216;1293;61089;-80
2024/03/22 06:36:47;;;;;;;;;;;;;;;21.28;33.07;101406.45;104233;1293;64309;-79
2024/03/22 06:39:12;;;;;;;;;;;;;;;21.25;33.05;101408.38;103920;1294;62076;-80
2024/03/22 06:41:38;;;;;;;;;;;;;;;21.23;32.98;101406.41;103890;1293;62302;-79
2024/03/22 06:44:04;;;;;;;;;;;;;;;21.19;33.04;101405.39;103917;1294;62280;-80
2024/03/22 06:46:30;;;;;;;;;;;;;;;21.16;32.97;101403.58;103987;1294;62192;-81
2024/03/22 06:48:56;;;;;;;;;;;;;;;21.15;32.77;101404.58;103906;1297;62311;-79
2024/03/22 06:51:21;;;;;;;;;;;;;;;21.13;32.92;101404.54;103995;1293;72828;-80
2024/03/22 06:53:47;;;;;;;;;;;;;;;21.11;32.92;101405.54;104094;1294;62201;-80
2024/03/22 06:56:13;;;;;;;;;;;;;;;21.09;32.93;101402.58;105294;1295;59960;-80
2024/03/22 06:58:39;;;;;;;;;;;;;;;21.08;33.02;101405.89;103950;1294;62197;-79
2024/03/22 07:01:04;;;;;;;;;;;;;;;21.07;33.12;101408.41;103893;1295;62114;-79
2024/03/22 07:03:30;;;;;;;;;;;;;;;21.08;33.47;101412.67;104346;1294;62112;-80
2024/03/22 07:05:57;;;;;;;;;;;;;;;21.07;33.39;101416.82;104204;1295;74940;-80
2024/03/22 07:08:23;;;;;;;;;;;;;;;21.08;33.42;101420.73;104220;1292;62072;-80
2024/03/22 07:10:50;;;;;;;;;;;;;;;21.09;33.42;101419.97;104092;1291;62306;-81
2024/03/22 07:13:15;;;;;;;;;;;;;;;21.10;33.56;101417.72;104389;1297;62200;-80
2024/03/22 07:15:42;;;;;;;;;;;;;;;21.12;33.43;101421.00;104346;1292;60270;-80
2024/03/22 07:18:08;;;;;;;;;;;;;;;21.13;33.40;101419.36;104527;1293;62138;-80
2024/03/22 07:20:33;;;;;;;;;;;;;;;21.14;33.29;101416.27;103724;1298;62128;-80
2024/03/22 07:22:59;;;;;;;;;;;;;;;21.14;33.26;101417.85;104038;1295;64463;-79
2024/03/22 07:25:24;;;;;;;;;;;;;;;21.14;33.23;101415.20;104269;1292;63459;-78
2024/03/22 07:27:50;;;;;;;;;;;;;;;21.14;33.16;101418.02;104093;1292;60450;-78
2024/03/22 07:30:15;;;;;;;;;;;;;;;21.16;33.15;101417.02;103709;1297;62129;-79
2024/03/22 07:32:41;;;;;;;;;;;;;;;21.19;33.15;101415.95;103966;1293;62399;-78
2024/03/22 07:35:07;;;;;;;;;;;;;;;21.22;33.13;101418.59;103344;1294;62077;-78
2024/03/22 07:37:34;;;;;;;;;;;;;;;21.26;33.04;101416.77;103390;1297;62307;-78
2024/03/22 07:39:59;;;;;;;;;;;;;;;21.29;32.96;101420.31;103464;1294;75214;-78
2024/03/22 07:42:25;;;;;;;;;;;;;;;21.32;33.11;101419.26;103283;1293;60952;-78
2024/03/22 07:44:51;;;;;;;;;;;;;;;21.35;33.13;101420.65;103294;1293;61974;-77
2024/03/22 07:47:16;;;;;;;;;;;;;;;21.39;33.13;101420.80;103126;1294;62203;-78
2024/03/22 07:49:42;;;;;;;;;;;;;;;21.41;33.14;101422.25;103273;1297;61965;-80
2024/03/22 07:52:08;;;;;;;;;;;;;;;21.44;33.12;101417.42;103987;1295;74911;-79
2024/03/22 07:54:34;;;;;;;;;;;;;;;21.48;33.13;101415.96;104173;1295;59775;-78
2024/03/22 07:57:00;;;;;;;;;;;;;;;21.50;33.32;101422.96;104079;1292;62244;-79
2024/03/22 07:59:25;;;;;;;;;;;;;;;21.52;33.54;101418.73;104108;1295;62171;-77
2024/03/22 08:01:51;;;;;;;;;;;;;;;21.55;33.74;101424.85;104358;1295;62157;-79
2024/03/22 08:04:16;;;;;;;;;;;;;;;21.57;33.74;101422.73;104412;1292;62233;-79
2024/03/22 08:06:42;;;;;;;;;;;;;;;21.59;33.85;101419.34;104312;1292;63443;-79
2024/03/22 08:09:07;;;;;;;;;;;;;;;21.63;33.87;101413.77;104490;1294;59936;-78
2024/03/22 08:11:33;;;;;;;;;;;;;;;21.65;33.70;101414.92;104333;1293;60098;-79
2024/03/22 08:14:08;;;;;;;;;;;;;;;21.66;33.76;101412.31;104387;1295;62156;-79
2024/03/22 08:16:33;;;;;;;;;;;;;;;21.68;33.91;101412.91;104418;1291;62113;-78
2024/03/22 08:18:59;;;;;;;;;;;;;;;21.69;33.88;101414.07;104502;1294;62089;-79
2024/03/22 08:21:32;;;;;;;;;;;;;;;21.70;33.88;101414.36;104417;1297;72651;-79
2024/03/22 08:23:57;;;;;;;;;;;;;;;21.71;33.79;101414.11;104714;1293;60634;-79
2024/03/22 08:26:23;;;;;;;;;;;;;;;21.72;33.81;101413.02;104513;1293;60059;-80
2024/03/22 08:28:49;;;;;;;;;;;;;;;21.73;33.87;101413.27;104591;1295;60030;-78
2024/03/22 08:31:14;;;;;;;;;;;;;;;21.74;33.94;101412.31;104411;1296;62089;-78
2024/03/22 08:33:40;;;;;;;;;;;;;;;21.75;33.94;101410.80;104571;1297;62185;-80
2024/03/22 08:36:06;;;;;;;;;;;;;;;21.76;33.87;101413.62;104644;1297;75176;-78
2024/03/22 08:38:31;;;;;;;;;;;;;;;21.77;33.92;101406.06;104516;1293;62201;-79
2024/03/22 08:40:57;;;;;;;;;;;;;;;21.78;33.93;101405.10;104304;1293;60276;-79
2024/03/22 08:43:25;;;;;;;;;;;;;;;21.80;33.85;101405.00;104391;1297;62101;-79
2024/03/22 08:45:51;;;;;;;;;;;;;;;21.80;33.95;101399.59;104301;1297;62111;-79
2024/03/22 08:48:17;;;;;;;;;;;;;;;21.80;33.96;101403.52;104458;1294;62189;-80
2024/03/22 08:50:43;;;;;;;;;;;;;;;21.79;33.97;101396.23;104477;1293;62672;-80
2024/03/22 08:53:08;;;;;;;;;;;;;;;21.78;34.09;101397.95;104552;1295;60381;-81
2024/03/22 08:55:34;;;;;;;;;;;;;;;21.73;34.03;101393.78;104507;1297;62211;-79
2024/03/22 08:57:59;;;;;;;;;;;;;;;21.68;34.00;101397.65;104520;1291;62208;-80
2024/03/22 09:00:26;;;;;;;;;;;;;;;21.63;33.87;101391.76;104600;1292;60608;-80
2024/03/22 09:02:52;;;;;;;;;;;;;;;21.55;33.87;101387.01;104728;1292;59737;-80
2024/03/22 09:05:18;;;;;;;;;;;;;;;21.48;33.81;101388.32;104484;1295;62081;-79
2024/03/22 09:07:44;;;;;;;;;;;;;;;21.45;33.68;101385.33;104424;1297;62212;-78
2024/03/22 09:10:09;;;;;;;;;;;;;;;21.42;33.68;101382.30;104404;1295;63463;-79
2024/03/22 09:12:35;;;;;;;;;;;;;;;21.40;33.54;101379.33;104494;1292;60895;-79
2024/03/22 09:15:01;;;;;;;;;;;;;;;21.43;33.85;101380.23;104710;1297;61924;-80
2024/03/22 09:17:27;;;;;;;;;;;;;;;21.46;33.73;101378.27;104382;1297;71372;-79
2024/03/22 09:19:52;;;;;;;;;;;;;;;21.48;33.60;101372.60;104644;1293;62443;-79
2024/03/22 09:22:18;;;;;;;;;;;;;;;21.51;33.77;101369.02;104541;1292;63505;-79
2024/03/22 09:24:44;;;;;;;;;;;;;;;21.54;33.72;101366.50;104419;1297;60160;-78
2024/03/22 09:27:10;;;;;;;;;;;;;;;21.57;33.81;101365.79;104454;1295;62252;-80
2024/03/22 09:29:38;;;;;;;;;;;;;;;21.60;33.63;101362.02;104334;1297;72986;-79
2024/03/22 09:32:04;;;;;;;;;;;;;;;21.63;33.67;101358.79;104360;1292;75266;-78
2024/03/22 09:34:30;;;;;;;;;;;;;;;21.66;33.80;101356.98;104536;1293;62114;-77
2024/03/22 09:36:56;;;;;;;;;;;;;;;21.70;33.77;101357.98;104491;1298;62076;-79
2024/03/22 09:39:22;;;;;;;;;;;;;;;21.73;33.97;101357.77;104397;1297;61974;-80
2024/03/22 09:41:48;;;;;;;;;;;;;;;21.75;33.99;101351.34;104464;1297;61995;-80
2024/03/22 09:44:14;;;;;;;;;;;;;;;21.77;34.08;101354.98;104711;1293;62117;-80
2024/03/22 09:46:40;;;;;;;;;;;;;;;21.77;34.08;101351.73;104972;1293;61932;-80
2024/03/22 09:49:06;;;;;;;;;;;;;;;21.75;34.06;101349.90;104790;1297;62137;-79
2024/03/22 09:51:31;;;;;;;;;;;;;;;21.71;33.94;101349.08;104643;1292;73367;-79
2024/03/22 09:53:57;;;;;;;;;;;;;;;21.66;33.90;101349.26;104690;1298;62177;-80
2024/03/22 09:56:24;;;;;;;;;;;;;;;21.60;33.81;101345.20;104801;1292;60126;-81
2024/03/22 09:58:49;;;;;;;;;;;;;;;21.59;33.98;101344.17;104895;1292;61954;-80
2024/03/22 10:01:15;;;;;;;;;;;;;;;21.58;34.17;101343.12;104524;1292;61552;-81
2024/03/22 10:03:40;;;;;;;;;;;;;;;21.58;34.27;101344.59;104476;1296;61969;-81
2024/03/22 10:06:06;;;;;;;;;;;;;;;21.54;33.99;101339.27;104763;1295;62084;-80
2024/03/22 10:08:32;;;;;;;;;;;;;;;21.51;33.79;101340.55;104951;1294;60115;-80
2024/03/22 10:11:01;;;;;;;;;;;;;;;21.50;33.79;101337.02;104610;1294;62009;-79
2024/03/22 10:13:28;;;;;;;;;;;;;;;21.48;33.65;101335.20;104796;1297;72396;-80
2024/03/22 10:15:53;;;;;;;;;;;;;;;21.44;33.52;101335.20;104133;1298;62391;-80
2024/03/22 10:18:19;;;;;;;;;;;;;;;21.44;33.45;101333.64;104436;1294;60162;-79
2024/03/22 10:20:44;;;;;;;;;;;;;;;21.42;33.40;101336.23;104318;1295;62619;-80
2024/03/22 10:23:11;;;;;;;;;;;;;;;21.41;33.13;101334.52;104150;1292;62116;-81
2024/03/22 10:25:37;;;;;;;;;;;;;;;21.39;33.16;101329.98;104355;1293;62204;-80
2024/03/22 10:28:02;;;;;;;;;;;;;;;21.37;33.16;101327.99;104485;1297;62210;-79
2024/03/22 10:30:30;;;;;;;;;;;;;;;21.35;33.10;101324.89;104108;1296;62117;-79
2024/03/22 10:32:56;;;;;;;;;;;;;;;21.34;33.00;101323.34;104557;1292;62167;-79
2024/03/22 10:35:21;;;;;;;;;;;;;;;21.32;32.98;101325.28;104868;1294;62099;-80
2024/03/22 10:37:48;;;;;;;;;;;;;;;21.28;32.95;101319.08;104711;1294;60360;-79
2024/03/22 10:40:14;;;;;;;;;;;;;;;21.27;32.81;101315.89;104821;1295;60402;-80
2024/03/22 10:42:40;;;;;;;;;;;;;;;21.23;32.71;101310.77;104551;1295;62168;-81
2024/03/22 10:45:06;;;;;;;;;;;;;;;21.22;32.66;101310.70;104808;1295;62070;-81
2024/03/22 10:47:33;;;;;;;;;;;;;;;21.21;32.62;101310.19;104434;1292;62165;-79
2024/03/22 10:50:08;;;;;;;;;;;;;;;21.22;32.69;101307.09;104067;1297;62293;-80
2024/03/22 10:52:36;;;;;;;;;;;;;;;21.22;32.73;101305.63;104239;1294;60329;-81
2024/03/22 10:55:04;;;;;;;;;;;;;;;21.22;32.60;101307.77;105803;1291;72463;-80
2024/03/22 10:57:29;;;;;;;;;;;;;;;21.21;32.49;101300.91;105844;1294;75126;-80
2024/03/22 10:59:55;;;;;;;;;;;;;;;21.20;32.65;101295.02;105756;1295;59754;-81
2024/03/22 11:02:23;;;;;;;;;;;;;;;21.20;32.50;101294.71;105706;1293;60863;-83
2024/03/22 11:04:58;;;;;;;;;;;;;;;21.19;32.72;101292.08;105779;1292;60110;-80
2024/03/22 11:07:25;;;;;;;;;;;;;;;21.16;32.81;101291.36;105773;1292;75386;-80
2024/03/22 11:09:56;;;;;;;;;;;;;;;21.10;32.76;101289.21;105791;1292;59853;-81
2024/03/22 11:12:21;;;;;;;;;;;;;;;21.10;32.90;101287.08;104760;1294;61939;-82
2024/03/22 11:14:47;;;;;;;;;;;;;;;21.12;32.89;101283.97;104163;1294;61998;-81
2024/03/22 11:17:13;;;;;;;;;;;;;;;21.12;33.03;101279.96;104399;1291;62127;-79
2024/03/22 11:19:38;;;;;;;;;;;;;;;21.11;32.95;101280.79;104540;1292;62186;-79
2024/03/22 11:22:07;;;;;;;;;;;;;;;21.11;32.73;101276.65;104536;1295;62073;-79
2024/03/22 11:24:38;;;;;;;;;;;;;;;21.12;32.87;101269.80;105947;1291;73492;-80
2024/03/22 11:27:05;;;;;;;;;;;;;;;21.13;32.76;101269.36;105865;1292;75412;-79
2024/03/22 11:29:31;;;;;;;;;;;;;;;21.15;33.00;101264.26;105914;1292;59937;-79
2024/03/22 11:31:57;;;;;;;;;;;;;;;21.18;32.91;101264.20;105903;1292;60470;-81
2024/03/22 11:34:23;;;;;;;;;;;;;;;21.23;32.98;101261.73;105931;1291;59921;-81
2024/03/22 11:36:50;;;;;;;;;;;;;;;21.26;33.12;101259.91;105854;1292;60221;-80
2024/03/22 11:39:16;;;;;;;;;;;;;;;21.28;32.99;101253.38;105855;1292;60355;-80
2024/03/22 11:41:41;;;;;;;;;;;;;;;21.30;32.80;101249.15;105514;1291;59486;-81
2024/03/22 11:44:07;;;;;;;;;;;;;;;21.32;33.05;101244.84;104318;1292;62296;-79
2024/03/22 11:46:32;;;;;;;;;;;;;;;21.35;33.04;101241.09;104142;1291;62493;-80
2024/03/22 11:48:58;;;;;;;;;;;;;;;21.36;32.96;101244.09;104319;1291;62137;-79
2024/03/22 11:51:24;;;;;;;;;;;;;;;21.37;32.78;101236.49;104578;1291;62092;-80
2024/03/22 11:53:50;;;;;;;;;;;;;;;21.38;32.72;101236.08;104582;1292;62182;-80
2024/03/22 11:56:17;;;;;;;;;;;;;;;21.39;32.69;101236.70;104618;1291;62080;-82
2024/03/22 11:58:43;;;;;;;;;;;;;;;21.40;32.43;101230.00;104665;1297;60353;-80
2024/03/22 12:01:09;;;;;;;;;;;;;;;21.37;32.26;101230.95;104796;1292;62254;-81
2024/03/22 12:03:35;;;;;;;;;;;;;;;21.31;32.19;101228.83;104792;1292;60621;-81
2024/03/22 12:06:01;;;;;;;;;;;;;;;21.21;32.09;101220.73;105077;1291;60845;-81
2024/03/22 12:08:27;;;;;;;;;;;;;;;21.17;32.14;101221.89;105072;1294;62168;-81
2024/03/22 12:10:52;;;;;;;;;;;;;;;21.13;32.18;101222.10;105236;1291;60773;-80
2024/03/22 12:13:18;;;;;;;;;;;;;;;21.09;32.19;101218.45;105085;1291;62121;-80
2024/03/22 12:15:43;;;;;;;;;;;;;;;21.08;32.23;101218.52;104747;1291;60577;-80
2024/03/22 12:18:09;;;;;;;;;;;;;;;21.07;32.24;101211.38;104686;1292;62181;-81